« Back
NWS Peachtree City, Ga » Text Product » ATL Terminal Aerodrome Forecast


Printer-friendly Version
Current Version              Previous Versions:   1  2  3  4  5  6  7  8  9  

Terminal Aerodrome Forecast

034
FTUS42 KFFC 011132
TAFATL
TAF
KATL 011132Z 0112/0218 03006KT P6SM FEW070 SCT250
     FM011500 05008KT P6SM SCT040
     FM012200 02006KT P6SM SCT050
     FM020100 35006KT P6SM FEW250
     FM021000 04005KT P6SM FEW250
     FM021600 07007KT P6SM FEW040=



USA.gov is the U.S. government's official web portal to all federal, state and local government web resources and services.